createdAt,value
2023-02-13T00:00:09.010Z,63.34
2023-02-13T00:02:43.406Z,63.58
2023-02-13T00:05:16.460Z,63.66
2023-02-13T00:07:49.315Z,63.86
2023-02-13T00:10:22.477Z,63.39
2023-02-13T00:12:55.350Z,63.33
2023-02-13T00:15:28.701Z,63.82
2023-02-13T00:18:03.092Z,63.31
2023-02-13T00:20:36.065Z,63.40
2023-02-13T00:23:08.942Z,63.41
2023-02-13T00:25:41.868Z,63.89
2023-02-13T00:28:15.117Z,63.71
2023-02-13T00:30:48.163Z,63.36
2023-02-13T00:33:22.899Z,63.48
2023-02-13T00:36:04.199Z,63.76
2023-02-13T00:38:37.649Z,63.71
2023-02-13T00:41:11.457Z,63.89
2023-02-13T00:43:44.685Z,63.62
2023-02-13T00:46:18.380Z,63.75
2023-02-13T00:48:52.721Z,63.52
2023-02-13T00:51:25.695Z,63.82
2023-02-13T00:53:58.698Z,64.05
2023-02-13T00:56:31.625Z,64.12
2023-02-13T00:59:04.571Z,63.51
2023-02-13T01:01:37.592Z,63.90
2023-02-13T01:04:12.201Z,63.99
2023-02-13T01:06:45.127Z,63.98
2023-02-13T01:09:18.068Z,63.77
2023-02-13T01:11:51.491Z,63.88
2023-02-13T01:14:24.508Z,63.79
2023-02-13T01:16:57.545Z,63.38
2023-02-13T01:19:31.959Z,63.97
2023-02-13T01:22:12.547Z,63.53
2023-02-13T01:24:50.222Z,63.69
2023-02-13T01:27:23.280Z,63.89
2023-02-13T01:30:00.813Z,63.80
2023-02-13T01:32:33.703Z,63.60
2023-02-13T01:35:09.745Z,63.48
2023-02-13T01:37:44.203Z,63.62
2023-02-13T01:40:17.700Z,63.53
2023-02-13T01:42:50.939Z,63.69
2023-02-13T01:45:31.432Z,63.55
2023-02-13T01:48:08.599Z,63.39
2023-02-13T01:50:47.653Z,63.80
2023-02-13T01:53:40.854Z,63.29
2023-02-13T01:56:21.986Z,63.40
2023-02-13T01:58:59.442Z,63.66
2023-02-13T02:01:33.739Z,63.27
2023-02-13T02:04:11.595Z,63.40
2023-02-13T02:06:49.256Z,63.44
2023-02-13T02:09:29.542Z,63.15
2023-02-13T02:12:07.093Z,63.31
2023-02-13T02:14:41.725Z,63.33
2023-02-13T02:17:15.917Z,63.53
2023-02-13T02:19:55.217Z,63.70
2023-02-13T02:23:22.405Z,63.66
2023-02-13T02:26:34.119Z,63.60
2023-02-13T02:29:42.608Z,63.37
2023-02-13T02:32:45.541Z,63.34
2023-02-13T02:35:29.494Z,63.28
2023-02-13T02:38:18.123Z,63.12
2023-02-13T02:40:59.633Z,63.41
2023-02-13T02:43:46.924Z,63.47
2023-02-13T02:46:28.315Z,63.06
2023-02-13T02:49:24.653Z,63.08
2023-02-13T02:52:06.188Z,63.31
2023-02-13T02:55:03.780Z,63.43
2023-02-13T02:58:01.535Z,63.54
2023-02-13T03:00:52.182Z,63.05
2023-02-13T03:03:44.495Z,63.23
2023-02-13T03:06:26.032Z,63.64
2023-02-13T03:09:20.676Z,63.79
2023-02-13T03:12:13.906Z,63.43
2023-02-13T03:14:47.192Z,63.98
2023-02-13T03:17:38.615Z,63.83
2023-02-13T03:20:38.740Z,63.97
2023-02-13T03:23:41.334Z,63.83
2023-02-13T03:26:50.372Z,63.48
2023-02-13T03:29:53.655Z,63.99
2023-02-13T03:32:38.566Z,63.94
2023-02-13T03:35:42.709Z,63.71
2023-02-13T03:38:22.153Z,63.96
2023-02-13T03:41:22.041Z,64.01
2023-02-13T03:44:10.231Z,64.35
2023-02-13T03:46:48.973Z,64.09
2023-02-13T03:49:42.531Z,64.13
2023-02-13T03:52:23.590Z,64.19
2023-02-13T03:55:23.113Z,63.87
2023-02-13T03:58:17.068Z,63.82
2023-02-13T04:00:53.551Z,63.62
2023-02-13T04:03:32.428Z,63.98
2023-02-13T04:06:11.090Z,63.63
2023-02-13T04:08:44.676Z,63.62
2023-02-13T04:11:25.856Z,63.82
2023-02-13T04:14:01.330Z,63.16
2023-02-13T04:16:42.227Z,63.86
2023-02-13T04:19:18.730Z,63.66
2023-02-13T04:21:58.173Z,64.06
2023-02-13T04:24:31.580Z,63.38
2023-02-13T04:27:06.078Z,64.18
2023-02-13T04:29:38.938Z,63.65
2023-02-13T04:32:12.902Z,63.84
2023-02-13T04:34:45.771Z,64.15
2023-02-13T04:37:18.672Z,64.48
2023-02-13T04:39:55.122Z,63.83
2023-02-13T04:42:29.882Z,64.19
2023-02-13T04:45:05.935Z,64.06
2023-02-13T04:47:38.958Z,63.91
2023-02-13T04:50:12.532Z,64.25
2023-02-13T04:52:45.443Z,63.95
2023-02-13T04:55:18.399Z,64.50
2023-02-13T04:57:54.991Z,63.79
2023-02-13T05:00:29.846Z,64.20
2023-02-13T05:03:07.218Z,64.61
2023-02-13T05:05:41.242Z,64.23
2023-02-13T05:08:14.141Z,63.98
2023-02-13T05:10:47.081Z,64.39
2023-02-13T05:13:23.239Z,64.42
2023-02-13T05:15:56.245Z,64.40
2023-02-13T05:18:29.438Z,63.90
2023-02-13T05:21:19.873Z,64.36
2023-02-13T05:23:52.835Z,63.94
2023-02-13T05:26:25.719Z,63.86
2023-02-13T05:29:26.047Z,64.34
2023-02-13T05:31:59.932Z,64.15
2023-02-13T05:34:33.077Z,64.54
2023-02-13T05:37:05.957Z,64.19
2023-02-13T05:39:41.759Z,64.37
2023-02-13T05:42:14.670Z,63.95
2023-02-13T05:44:49.404Z,64.44
2023-02-13T05:47:22.781Z,63.90
2023-02-13T05:49:55.914Z,64.38
2023-02-13T05:52:30.972Z,63.62
2023-02-13T05:55:03.888Z,64.25
2023-02-13T05:57:36.734Z,64.00
2023-02-13T06:00:14.924Z,63.74
2023-02-13T06:02:50.283Z,64.60
2023-02-13T06:05:23.190Z,64.35
2023-02-13T06:07:56.057Z,64.01
2023-02-13T06:10:28.990Z,63.85
2023-02-13T06:13:01.887Z,63.94
2023-02-13T06:15:36.343Z,64.10
2023-02-13T06:18:09.816Z,64.01
2023-02-13T06:20:42.706Z,64.55
2023-02-13T06:23:15.790Z,64.37
2023-02-13T06:25:48.798Z,64.33
2023-02-13T06:28:21.711Z,63.90
2023-02-13T06:30:56.598Z,63.64
2023-02-13T06:33:29.807Z,64.21
2023-02-13T06:36:02.690Z,63.92
2023-02-13T06:38:35.590Z,63.82
2023-02-13T06:41:08.556Z,64.27
2023-02-13T06:43:41.555Z,63.83
2023-02-13T06:46:15.890Z,63.55
2023-02-13T06:48:48.795Z,64.30
2023-02-13T06:51:21.753Z,63.58
2023-02-13T06:53:54.700Z,63.81
2023-02-13T06:56:27.924Z,63.53
2023-02-13T06:59:00.814Z,63.53
2023-02-13T07:01:35.206Z,63.87
2023-02-13T07:04:08.088Z,64.07
2023-02-13T07:06:40.986Z,64.34
2023-02-13T07:09:14.294Z,63.98
2023-02-13T07:11:47.313Z,64.29
2023-02-13T07:14:20.324Z,63.79
2023-02-13T07:16:54.691Z,64.32
2023-02-13T07:19:27.617Z,64.25
2023-02-13T07:22:00.640Z,63.97
2023-02-13T07:24:35.441Z,64.13
2023-02-13T07:27:08.436Z,63.97
2023-02-13T07:29:41.330Z,63.43
2023-02-13T07:32:16.440Z,63.59
2023-02-13T07:35:00.845Z,64.28
2023-02-13T07:37:34.622Z,63.52
2023-02-13T07:40:09.074Z,63.09
2023-02-13T07:42:41.963Z,63.99
2023-02-13T07:45:23.445Z,63.50
2023-02-13T07:47:57.984Z,63.34
2023-02-13T07:50:31.053Z,63.31
2023-02-13T07:53:04.178Z,63.75
2023-02-13T07:55:39.392Z,63.31
2023-02-13T07:58:12.556Z,63.78
2023-02-13T08:00:45.472Z,63.43
2023-02-13T08:03:19.780Z,63.62
2023-02-13T08:05:52.736Z,63.27
2023-02-13T08:08:25.617Z,63.38
2023-02-13T08:11:21.646Z,63.48
2023-02-13T08:13:54.503Z,63.02
2023-02-13T08:16:27.461Z,63.22
2023-02-13T08:19:01.842Z,63.34
2023-02-13T08:21:35.343Z,63.36
2023-02-13T08:24:08.705Z,63.36
2023-02-13T08:26:41.938Z,63.15
2023-02-13T08:29:14.815Z,62.92
2023-02-13T08:31:47.831Z,62.86
2023-02-13T08:34:22.286Z,62.89
2023-02-13T08:36:55.255Z,63.08
2023-02-13T08:39:28.203Z,62.76
2023-02-13T08:42:01.246Z,62.92
2023-02-13T08:44:34.222Z,62.32
2023-02-13T08:47:07.248Z,62.07
2023-02-13T08:49:41.642Z,61.81
2023-02-13T08:52:14.600Z,62.06
2023-02-13T08:54:47.467Z,61.67
2023-02-13T08:57:20.462Z,61.46
2023-02-13T08:59:53.347Z,61.65
2023-02-13T09:02:26.281Z,61.71
2023-02-13T09:05:00.519Z,61.48
2023-02-13T09:07:33.425Z,61.65
2023-02-13T09:10:07.573Z,61.50
2023-02-13T09:12:40.552Z,61.33
2023-02-13T09:15:13.484Z,61.39
2023-02-13T09:17:46.522Z,61.47
2023-02-13T09:20:20.974Z,60.92
2023-02-13T09:22:53.959Z,60.54
2023-02-13T09:25:27.523Z,60.25
2023-02-13T09:28:01.066Z,61.02
2023-02-13T09:30:33.974Z,60.58
2023-02-13T09:33:11.967Z,60.60
2023-02-13T09:35:46.332Z,60.87
2023-02-13T09:38:19.440Z,60.28
2023-02-13T09:40:56.154Z,59.79
2023-02-13T09:43:32.013Z,60.19
2023-02-13T09:46:14.384Z,59.74
2023-02-13T09:48:51.065Z,59.67
2023-02-13T09:51:29.536Z,59.35
2023-02-13T09:54:05.980Z,59.52
2023-02-13T09:56:50.741Z,59.90
2023-02-13T09:59:36.697Z,59.47
2023-02-13T10:02:42.565Z,59.63
2023-02-13T10:05:29.547Z,59.05
2023-02-13T10:08:12.273Z,58.99
2023-02-13T10:10:54.496Z,58.44
2023-02-13T10:13:43.258Z,58.67
2023-02-13T10:16:20.764Z,59.37
2023-02-13T10:18:58.787Z,58.94
2023-02-13T10:21:37.062Z,58.89
2023-02-13T10:24:18.964Z,58.83
2023-02-13T10:26:52.725Z,59.71
2023-02-13T10:29:49.663Z,59.63
2023-02-13T10:32:30.275Z,59.31
2023-02-13T10:35:05.266Z,58.88
2023-02-13T10:37:39.531Z,58.74
2023-02-13T10:40:15.674Z,58.79
2023-02-13T10:43:00.569Z,58.51
2023-02-13T10:45:50.716Z,58.09
2023-02-13T10:48:50.021Z,57.62
2023-02-13T10:51:31.438Z,57.48
2023-02-13T10:54:24.926Z,57.36
2023-02-13T10:57:08.911Z,57.11
2023-02-13T10:59:56.394Z,56.90
2023-02-13T11:02:31.829Z,57.38
2023-02-13T11:05:16.755Z,57.07
2023-02-13T11:07:50.056Z,57.08
2023-02-13T11:10:25.635Z,56.76
2023-02-13T11:13:19.345Z,56.46
2023-02-13T11:16:04.767Z,56.45
2023-02-13T11:18:41.709Z,56.22
2023-02-13T11:21:21.416Z,56.55
2023-02-13T11:23:56.443Z,56.50
2023-02-13T11:26:34.704Z,56.66
2023-02-13T11:29:21.791Z,56.06
2023-02-13T11:32:06.754Z,56.24
2023-02-13T11:34:39.972Z,56.54
2023-02-13T11:37:19.893Z,55.85
2023-02-13T11:39:54.786Z,56.02
2023-02-13T11:42:31.497Z,56.67
2023-02-13T11:45:08.698Z,56.99
2023-02-13T11:47:43.986Z,56.91
2023-02-13T11:50:27.134Z,56.88
2023-02-13T11:53:03.324Z,57.12
2023-02-13T11:55:39.121Z,57.99
2023-02-13T11:58:26.125Z,57.66
2023-02-13T12:01:38.196Z,57.81
2023-02-13T12:04:16.724Z,58.49
2023-02-13T12:07:01.445Z,58.17
2023-02-13T12:09:34.343Z,58.40
2023-02-13T12:12:08.140Z,58.79
2023-02-13T12:14:44.531Z,58.81
2023-02-13T12:17:31.278Z,59.14
2023-02-13T12:20:05.234Z,59.18
2023-02-13T12:22:48.467Z,58.82
2023-02-13T12:25:41.675Z,59.35
2023-02-13T12:28:17.301Z,59.05
2023-02-13T12:31:24.847Z,59.35
2023-02-13T12:34:22.529Z,59.28
2023-02-13T12:37:07.843Z,59.46
2023-02-13T12:39:49.394Z,59.51
2023-02-13T12:42:34.978Z,59.48
2023-02-13T12:45:22.775Z,59.65
2023-02-13T12:48:16.789Z,59.83
2023-02-13T12:51:00.954Z,59.77
2023-02-13T12:53:48.746Z,60.23
2023-02-13T12:56:32.766Z,60.30
2023-02-13T12:59:15.417Z,60.02
2023-02-13T13:02:17.007Z,59.98
2023-02-13T13:05:03.355Z,59.99
2023-02-13T13:07:55.381Z,60.13
2023-02-13T13:10:43.471Z,60.15
2023-02-13T13:13:30.294Z,59.82
2023-02-13T13:16:11.389Z,60.15
2023-02-13T13:18:54.781Z,59.91
2023-02-13T13:21:36.603Z,59.88
2023-02-13T13:24:16.670Z,60.02
2023-02-13T13:26:52.080Z,60.32
2023-02-13T13:29:31.051Z,60.24
2023-02-13T13:32:08.781Z,60.51
2023-02-13T13:34:41.698Z,60.53
2023-02-13T13:37:27.966Z,60.33
2023-02-13T13:40:11.372Z,60.48
2023-02-13T13:42:53.294Z,60.44
2023-02-13T13:45:30.450Z,60.25
2023-02-13T13:48:21.224Z,60.48
2023-02-13T13:50:55.093Z,60.27
2023-02-13T13:53:28.059Z,60.25
2023-02-13T13:56:09.375Z,59.77
2023-02-13T13:58:44.973Z,60.09
2023-02-13T14:01:19.821Z,60.19
2023-02-13T14:03:55.275Z,60.14
2023-02-13T14:06:49.291Z,60.43
2023-02-13T14:09:40.146Z,60.17
2023-02-13T14:12:47.689Z,60.12
2023-02-13T14:15:52.220Z,60.16
2023-02-13T14:18:27.910Z,60.41
2023-02-13T14:21:03.517Z,60.04
2023-02-13T14:23:49.781Z,60.57
2023-02-13T14:26:41.736Z,59.88
2023-02-13T14:29:28.478Z,60.17
2023-02-13T14:32:20.442Z,60.23
2023-02-13T14:34:55.444Z,60.16
2023-02-13T14:37:36.751Z,60.37
2023-02-13T14:40:29.130Z,60.22
2023-02-13T14:43:20.678Z,60.14
2023-02-13T14:45:58.257Z,60.01
2023-02-13T14:48:43.305Z,60.20
2023-02-13T14:51:28.567Z,60.25
2023-02-13T14:54:07.079Z,60.60
2023-02-13T14:56:40.622Z,60.21
2023-02-13T14:59:18.269Z,60.40
2023-02-13T15:01:58.970Z,60.17
2023-02-13T15:04:36.813Z,60.62
2023-02-13T15:07:17.276Z,60.52
2023-02-13T15:09:53.952Z,60.55
2023-02-13T15:12:29.346Z,60.76
2023-02-13T15:15:03.190Z,60.86
2023-02-13T15:17:40.235Z,60.53
2023-02-13T15:20:25.024Z,60.44
2023-02-13T15:22:58.776Z,60.71
2023-02-13T15:25:35.677Z,60.53
2023-02-13T15:28:16.469Z,60.57
2023-02-13T15:30:57.079Z,60.45
2023-02-13T15:33:38.324Z,60.64
2023-02-13T15:36:20.131Z,60.48
2023-02-13T15:39:00.351Z,60.51
2023-02-13T15:41:37.044Z,60.44
2023-02-13T15:44:18.940Z,60.39
2023-02-13T15:46:52.735Z,60.52
2023-02-13T15:49:28.366Z,60.33
2023-02-13T15:52:06.360Z,60.28
2023-02-13T15:54:50.381Z,60.34
2023-02-13T15:57:24.873Z,60.40
2023-02-13T15:59:59.846Z,60.28
2023-02-13T16:02:41.448Z,60.54
2023-02-13T16:05:26.566Z,60.66
2023-02-13T16:08:32.356Z,60.56
2023-02-13T16:11:22.564Z,60.81
2023-02-13T16:14:13.954Z,60.91
2023-02-13T16:16:53.908Z,60.87
2023-02-13T16:19:31.862Z,61.19
2023-02-13T16:22:17.414Z,61.02
2023-02-13T16:24:53.293Z,60.96
2023-02-13T16:27:28.931Z,61.22
2023-02-13T16:30:22.716Z,61.34
2023-02-13T16:33:12.216Z,61.29
2023-02-13T16:35:48.687Z,61.19
2023-02-13T16:38:34.360Z,61.43
2023-02-13T16:41:28.763Z,61.44
2023-02-13T16:44:02.600Z,61.58
2023-02-13T16:46:37.518Z,61.30
2023-02-13T16:49:32.798Z,61.71
2023-02-13T16:52:12.658Z,61.88
2023-02-13T16:55:04.419Z,61.90
2023-02-13T16:57:37.365Z,61.48
2023-02-13T17:00:20.553Z,61.69
2023-02-13T17:02:53.447Z,62.08
2023-02-13T17:05:28.934Z,62.23
2023-02-13T17:08:01.858Z,61.74
2023-02-13T17:10:37.858Z,62.12
2023-02-13T17:13:17.622Z,61.93
2023-02-13T17:15:51.879Z,62.02
2023-02-13T17:18:24.869Z,62.49
2023-02-13T17:20:58.043Z,61.76
2023-02-13T17:23:31.218Z,61.75
2023-02-13T17:26:05.866Z,61.79
2023-02-13T17:28:38.807Z,61.83
2023-02-13T17:31:14.059Z,61.57
2023-02-13T17:33:47.058Z,61.78
2023-02-13T17:36:19.941Z,61.85
2023-02-13T17:38:52.823Z,62.74
2023-02-13T17:41:27.532Z,62.40
2023-02-13T17:44:00.409Z,62.65
2023-02-13T17:46:34.434Z,62.52
2023-02-13T17:49:07.526Z,62.96
2023-02-13T17:51:43.837Z,62.79
2023-02-13T17:54:17.924Z,62.17
2023-02-13T17:56:52.222Z,62.06
2023-02-13T17:59:25.706Z,62.48
2023-02-13T18:01:58.718Z,62.49
2023-02-13T18:04:31.779Z,63.03
2023-02-13T18:07:04.770Z,62.49
2023-02-13T18:09:37.860Z,62.60
2023-02-13T18:12:15.329Z,62.49
2023-02-13T18:14:48.989Z,62.77
2023-02-13T18:17:22.356Z,62.66
2023-02-13T18:19:58.052Z,62.97
2023-02-13T18:22:30.976Z,62.83
2023-02-13T18:25:04.603Z,62.91
2023-02-13T18:27:38.873Z,62.85
2023-02-13T18:30:14.376Z,62.80
2023-02-13T18:32:51.538Z,62.86
2023-02-13T18:35:24.937Z,62.65
2023-02-13T18:37:57.795Z,62.89
2023-02-13T18:40:30.836Z,62.39
2023-02-13T18:43:05.240Z,62.51
2023-02-13T18:45:38.827Z,62.27
2023-02-13T18:48:11.705Z,62.72
2023-02-13T18:50:44.836Z,62.63
2023-02-13T18:53:17.735Z,62.49
2023-02-13T18:55:50.737Z,62.72
2023-02-13T18:58:25.548Z,62.80
2023-02-13T19:00:58.757Z,62.82
2023-02-13T19:03:32.097Z,62.87
2023-02-13T19:06:08.333Z,62.87
2023-02-13T19:08:41.450Z,63.00
2023-02-13T19:11:16.422Z,63.08
2023-02-13T19:13:54.703Z,62.68
2023-02-13T19:16:29.630Z,62.64
2023-02-13T19:19:04.883Z,62.83
2023-02-13T19:21:39.539Z,63.02
2023-02-13T19:24:15.429Z,62.86
2023-02-13T19:26:48.510Z,62.78
2023-02-13T19:29:22.834Z,62.80
2023-02-13T19:31:55.991Z,62.92
2023-02-13T19:34:28.924Z,62.85
2023-02-13T19:37:01.864Z,62.85
2023-02-13T19:39:34.880Z,62.89
2023-02-13T19:42:07.839Z,63.12
2023-02-13T19:44:42.201Z,63.09
2023-02-13T19:47:15.302Z,63.22
2023-02-13T19:49:49.969Z,63.11
2023-02-13T19:52:24.457Z,63.12
2023-02-13T19:54:57.387Z,63.17
2023-02-13T19:57:30.311Z,62.91
2023-02-13T20:00:05.181Z,63.01
2023-02-13T20:02:38.376Z,63.36
2023-02-13T20:05:11.372Z,63.43
2023-02-13T20:07:44.331Z,63.14
2023-02-13T20:10:17.221Z,63.48
2023-02-13T20:12:53.789Z,63.45
2023-02-13T20:15:28.054Z,63.58
2023-02-13T20:18:01.084Z,63.68
2023-02-13T20:20:33.942Z,63.46
2023-02-13T20:23:07.166Z,63.63
2023-02-13T20:25:40.664Z,63.77
2023-02-13T20:28:13.668Z,63.72
2023-02-13T20:30:48.103Z,63.75
2023-02-13T20:33:21.067Z,63.67
2023-02-13T20:35:53.944Z,63.80
2023-02-13T20:38:26.909Z,63.96
2023-02-13T20:41:01.749Z,63.84
2023-02-13T20:43:35.827Z,64.03
2023-02-13T20:46:11.017Z,64.20
2023-02-13T20:48:45.679Z,64.18
2023-02-13T20:51:20.088Z,63.98
2023-02-13T20:53:53.026Z,63.88
2023-02-13T20:56:28.280Z,64.08
2023-02-13T20:59:02.659Z,64.29
2023-02-13T21:01:41.327Z,64.36
2023-02-13T21:04:19.104Z,64.26
2023-02-13T21:06:52.119Z,64.18
2023-02-13T21:09:25.866Z,64.20
2023-02-13T21:11:58.777Z,64.44
2023-02-13T21:14:31.817Z,64.59
2023-02-13T21:17:06.423Z,64.62
2023-02-13T21:19:39.880Z,64.41
2023-02-13T21:22:12.852Z,64.63
2023-02-13T21:24:45.733Z,64.49
2023-02-13T21:27:18.748Z,64.37
2023-02-13T21:29:51.779Z,64.55
2023-02-13T21:32:26.546Z,64.64
2023-02-13T21:34:59.528Z,64.66
2023-02-13T21:37:32.601Z,64.79
2023-02-13T21:40:06.377Z,64.65
2023-02-13T21:42:39.299Z,64.62
2023-02-13T21:45:12.636Z,65.02
2023-02-13T21:47:46.958Z,65.09
2023-02-13T21:50:22.265Z,65.10
2023-02-13T21:52:55.143Z,65.30
2023-02-13T21:55:34.041Z,65.41
2023-02-13T21:58:06.881Z,65.68
2023-02-13T22:00:39.770Z,66.04
2023-02-13T22:03:14.075Z,66.45
2023-02-13T22:05:47.857Z,66.37
2023-02-13T22:08:20.802Z,66.50
2023-02-13T22:10:54.914Z,66.75
2023-02-13T22:13:28.888Z,67.03
2023-02-13T22:16:02.263Z,67.21
2023-02-13T22:18:38.557Z,66.96
2023-02-13T22:21:13.661Z,67.16
2023-02-13T22:23:47.653Z,66.90
2023-02-13T22:26:22.573Z,66.76
2023-02-13T22:28:59.637Z,66.97
2023-02-13T22:31:33.260Z,66.73
2023-02-13T22:34:08.073Z,66.89
2023-02-13T22:36:41.366Z,66.44
2023-02-13T22:39:14.206Z,66.55
2023-02-13T22:41:47.686Z,66.46
2023-02-13T22:44:20.607Z,66.34
2023-02-13T22:46:53.581Z,66.36
2023-02-13T22:49:28.066Z,66.05
2023-02-13T22:52:01.085Z,66.08
2023-02-13T22:54:34.114Z,65.88
2023-02-13T22:57:07.342Z,65.77
2023-02-13T22:59:40.435Z,65.44
2023-02-13T23:02:13.412Z,65.65
2023-02-13T23:04:49.331Z,65.55
2023-02-13T23:07:22.552Z,65.76
2023-02-13T23:09:55.509Z,65.23
2023-02-13T23:12:36.203Z,64.79
2023-02-13T23:15:14.019Z,64.87
2023-02-13T23:18:04.553Z,65.31
2023-02-13T23:20:39.074Z,65.01
2023-02-13T23:23:12.641Z,65.24
2023-02-13T23:25:45.547Z,65.22
2023-02-13T23:28:18.575Z,65.11
2023-02-13T23:30:51.516Z,65.17
2023-02-13T23:33:24.492Z,64.90
2023-02-13T23:35:58.810Z,65.25
2023-02-13T23:38:31.824Z,64.79
2023-02-13T23:41:08.758Z,65.38
2023-02-13T23:43:41.725Z,65.03
2023-02-13T23:46:14.609Z,64.85
2023-02-13T23:48:47.485Z,65.04
2023-02-13T23:51:23.140Z,64.46
2023-02-13T23:53:57.390Z,64.87
2023-02-13T23:56:30.283Z,64.81
2023-02-13T23:59:03.190Z,64.71
